Etusivu
METAR-TAF:

METAR-TAF

Lentoasemat :

Meiringen, Sveitsi

Leveyspiiri: 46-44-25N, Pituuspiiri: 8-06-36E, korkeus merenpinnasta: 577 m

Tämänhetkinen sää

Tämä raportti tehtiin 22 minuuttia sitten, kello 15.20 UTC
Tuuli 1 kn eri suunnista
Lämpötila 12°C
Kosteus 38%
Ilmanpaine 1028 hPa
Näkyvyys 10 km tai enemmän
ei pilviä alle 1500 m:ssä eikä cumulonimbus-pilviä

METAR: LSMM 211520Z VRB01KT CAVOK 12/M02 Q1028 RMK BLU

Aika: 16:42 (15:42 UTC)


TAF: puuttuu

Säähavainnot ja -ennusteet yli 4000 lentoasemalta (METAR- ja TAF-raportit).

Käytössä olevat sääasemat on merkitty karttaan keltaisilla ja punaisilla pisteillä.

Aseta hiiri pisteen päälle nähdäksesi sääaseman nimen.

Klikkaa sitten nähdäksesi säähavainnot ja -ennusteet.

Kartan vaihtaminen: klikkaa mustalla rastilla varustettuja vihreitä pisteitä, niin voit zoomata sisään; viivalla varustettua vihreää pistettä, niin voit zoomata ulos tai vihreitä nuolia, niin pääset viereisille kartoille.


METAR-TAF: